Time;durP1;ratioP1;P1;durP2;ratioP2;P2;SDS_P1;SDS_P2;PMS_P1;PMS_P2;Temp;Humidity;BMP_temperature;BMP_pressure;BME280_temperature;BME280_humidity;BME280_pressure;Samples;Min_cycle;Max_cycle;Signal;HPM_P1;HPM_P2
2021/10/04 00:02:24;;;;;;;0.50;0.50;;;14.20;1.00;;;;;;5053031;28;20964;-77
2021/10/04 00:04:50;;;;;;;1.57;0.73;;;;;;;;;;5050738;28;20441;-77
2021/10/04 00:07:17;;;;;;;0.60;0.50;;;;;;;;;;5054566;28;20381;-76
2021/10/04 00:09:55;;;;;;;1.13;0.70;;;;;;;;;;5054863;28;20917;-76
2021/10/04 00:12:31;;;;;;;1.60;0.63;;;;;;;;;;5054138;28;20866;-76
2021/10/04 00:14:58;;;;;;;2.20;0.80;;;;;;;;;;5052769;28;20867;-76
2021/10/04 00:17:25;;;;;;;0.60;0.50;;;;;;;;;;5049141;28;20438;-77
2021/10/04 00:19:51;;;;;;;0.70;0.53;;;;;;;;;;5054256;28;20772;-76
2021/10/04 00:22:31;;;;;;;1.00;0.50;;;;;;;;;;5049366;28;20411;-77
2021/10/04 00:25:01;;;;;;;1.67;0.70;;;;;;;;;;5035256;28;20450;-76
2021/10/04 00:27:28;;;;;;;0.50;0.50;;;;;;;;;;5034588;28;20406;-77
2021/10/04 00:29:56;;;;;;;0.90;0.43;;;;;;;;;;5034312;28;20898;-77
2021/10/04 00:32:25;;;;;;;2.90;0.80;;;;;;;;;;5061496;28;20443;-76
2021/10/04 00:34:55;;;;;;;0.77;0.50;;;;;;;;;;5072613;28;20397;-77
2021/10/04 00:37:25;;;;;;;0.50;0.40;;;;;;;;;;5034051;28;20419;-77
2021/10/04 00:39:55;;;;;;;0.53;0.43;;;;;;;;;;5051446;28;20406;-76
2021/10/04 00:42:26;;;;;;;1.53;0.53;;;14.00;1.00;;;;;;5049239;28;20419;-77
2021/10/04 00:44:55;;;;;;;0.87;0.60;;;;;;;;;;5045694;28;20453;-77
2021/10/04 00:47:25;;;;;;;0.90;0.60;;;;;;;;;;5048690;28;20954;-76
2021/10/04 00:50:01;;;;;;;0.67;0.50;;;;;;;;;;5035285;28;20405;-77
2021/10/04 00:52:28;;;;;;;0.80;0.60;;;;;;;;;;5034029;28;20391;-77
2021/10/04 00:54:54;;;;;;;4.30;0.80;;;;;;;;;;5034806;28;20391;-74
2021/10/04 00:57:20;;;;;;;1.80;0.67;;;;;;;;;;5049229;28;20568;-73
2021/10/04 00:59:49;;;;;;;0.63;0.50;;;;;;;;;;5052086;28;20436;-73
2021/10/04 01:02:19;;;;;;;1.27;0.50;;;;;;;;;;5053429;28;20773;-73
2021/10/04 01:04:45;;;;;;;1.03;0.70;;;;;;;;;;5053512;28;20540;-73
2021/10/04 01:07:12;;;;;;;1.83;0.70;;;;;;;;;;5050592;28;20422;-72
2021/10/04 01:09:38;;;;;;;4.10;1.00;;;;;;;;;;5036884;28;20526;-72
2021/10/04 01:12:25;;;;;;;2.10;0.70;;;14.00;1.00;;;;;;5041345;28;20877;-76
2021/10/04 01:14:51;;;;;;;1.53;0.80;;;;;;;;;;5062165;28;20417;-77
2021/10/04 01:17:25;;;;;;;2.10;0.93;;;;;;;;;;5046618;28;20422;-77
2021/10/04 01:19:56;;;;;;;1.43;0.63;;;14.00;1.00;;;;;;5040122;28;20409;-77
2021/10/04 01:22:25;;;;;;;1.77;0.80;;;;;;;;;;5053391;28;20877;-77
2021/10/04 01:24:55;;;;;;;0.60;0.50;;;;;;;;;;5047090;28;20767;-76
2021/10/04 01:27:44;;;;;;;0.60;0.60;;;14.00;1.00;;;;;;5048843;28;20897;-76
2021/10/04 01:30:49;;;;;;;5.13;0.87;;;13.90;1.00;;;;;;5038190;28;20419;-77
2021/10/04 01:33:25;;;;;;;0.90;0.57;;;;;;;;;;5042786;28;20439;-77
2021/10/04 01:35:51;;;;;;;0.63;0.50;;;;;;;;;;5056472;28;20800;-76
2021/10/04 01:38:31;;;;;;;0.70;0.50;;;;;;;;;;5057508;28;20783;-76
2021/10/04 01:41:01;;;;;;;1.03;0.80;;;;;;;;;;5037108;28;20403;-76
2021/10/04 01:43:31;;;;;;;0.70;0.70;;;;;;;;;;5056232;28;20393;-76
2021/10/04 01:45:58;;;;;;;2.10;0.67;;;;;;;;;;5056772;28;20416;-77
2021/10/04 01:48:24;;;;;;;0.60;0.60;;;;;;;;;;5044763;28;20447;-77
2021/10/04 01:50:55;;;;;;;0.60;0.60;;;;;;;;;;5052633;28;20743;-76
2021/10/04 01:53:31;;;;;;;0.73;0.50;;;;;;;;;;5057122;28;20782;-77
2021/10/04 01:56:00;;;;;;;4.40;0.60;;;;;;;;;;5055811;28;20410;-76
2021/10/04 01:58:26;;;;;;;3.00;0.60;;;;;;;;;;5054155;28;20917;-76
2021/10/04 02:01:02;;;;;;;1.17;0.73;;;13.80;1.00;;;;;;5050875;28;20421;-77
2021/10/04 02:03:31;;;;;;;0.60;0.60;;;;;;;;;;5055881;28;20428;-77
2021/10/04 02:06:02;;;;;;;9.00;0.73;;;;;;;;;;5057265;28;20391;-76
2021/10/04 02:08:32;;;;;;;0.73;0.60;;;;;;;;;;5053339;28;20494;-77
2021/10/04 02:11:01;;;;;;;1.23;0.70;;;;;;;;;;5047095;28;20775;-77
2021/10/04 02:13:43;;;;;;;1.00;0.63;;;;;;;;;;5057182;28;20850;-77
2021/10/04 02:16:15;;;;;;;1.10;0.67;;;;;;;;;;5049829;28;20423;-76
2021/10/04 02:18:42;;;;;;;1.63;0.80;;;;;;;;;;5054849;28;20416;-76
2021/10/04 02:21:30;;;;;;;0.90;0.70;;;;;;;;;;5051553;28;20418;-77
2021/10/04 02:24:02;;;;;;;0.97;0.90;;;;;;;;;;5056573;28;20453;-77
2021/10/04 02:26:28;;;;;;;1.50;0.80;;;;;;;;;;5042736;28;20472;-73
2021/10/04 02:28:54;;;;;;;0.90;0.60;;;;;;;;;;5036741;28;20749;-73
2021/10/04 02:31:26;;;;;;;2.70;0.90;;;;;;;;;;5053068;28;20414;-72
2021/10/04 02:33:52;;;;;;;1.20;0.70;;;;;;;;;;5055775;28;20423;-72
2021/10/04 02:36:31;;;;;;;3.13;1.10;;;;;;;;;;5041007;28;20858;-72
2021/10/04 02:38:57;;;;;;;1.17;0.80;;;;;;;;;;5056033;28;20397;-72
2021/10/04 02:41:31;;;;;;;2.07;1.10;;;;;;;;;;5044746;28;20394;-76
2021/10/04 02:44:07;;;;;;;1.00;0.70;;;;;;;;;;5055886;28;20452;-76
2021/10/04 02:46:34;;;;;;;1.80;0.93;;;;;;;;;;5055962;28;20384;-76
2021/10/04 02:49:07;;;;;;;1.70;1.20;;;;;;;;;;5055375;28;20893;-77
2021/10/04 02:51:37;;;;;;;1.03;0.90;;;;;;;;;;5041249;28;20502;-76
2021/10/04 02:54:13;;;;;;;3.63;1.60;;;;;;;;;;5046067;28;20463;-77
2021/10/04 02:56:43;;;;;;;9.40;1.13;;;;;;;;;;5056007;28;20925;-76
2021/10/04 02:59:15;;;;;;;14.43;1.10;;;;;;;;;;5047031;28;20961;-77
2021/10/04 03:02:01;;;;;;;1.80;1.23;;;13.90;1.00;;;;;;5049400;28;20783;-77
2021/10/04 03:04:27;;;;;;;1.33;1.00;;;;;;;;;;5059534;28;20460;-76
2021/10/04 03:06:55;;;;;;;1.77;1.03;;;;;;;;;;5040462;28;20423;-77
2021/10/04 03:09:22;;;;;;;3.43;1.03;;;;;;;;;;5050992;28;20801;-76
2021/10/04 03:11:48;;;;;;;8.00;2.07;;;;;;;;;;5054210;28;20414;-73
2021/10/04 03:14:14;;;;;;;3.70;1.30;;;;;;;;;;5055422;28;20398;-73
2021/10/04 03:16:40;;;;;;;4.53;1.70;;;;;;;;;;5053879;28;20429;-73
2021/10/04 03:19:06;;;;;;;1.50;1.27;;;;;;;;;;5056929;28;20533;-73
2021/10/04 03:21:32;;;;;;;1.70;1.37;;;;;;;;;;5065635;28;20476;-72
2021/10/04 03:23:58;;;;;;;6.67;1.70;;;;;;;;;;5035547;28;20921;-72
2021/10/04 03:26:25;;;;;;;3.60;1.80;;;;;;;;;;5037607;28;20868;-73
2021/10/04 03:28:55;;;;;;;1.90;1.33;;;;;;;;;;5053852;28;20451;-73
2021/10/04 03:31:21;;;;;;;3.50;1.80;;;;;;;;;;5051480;28;20964;-73
2021/10/04 03:33:48;;;;;;;5.43;1.93;;;;;;;;;;5035539;28;20450;-73
2021/10/04 03:36:14;;;;;;;1.40;1.30;;;;;;;;;;5046341;28;20747;-73
2021/10/04 03:38:40;;;;;;;2.13;1.60;;;;;;;;;;5054891;28;20795;-72
2021/10/04 03:41:06;;;;;;;2.27;1.87;;;;;;;;;;5041610;28;20745;-72
2021/10/04 03:43:32;;;;;;;2.13;1.53;;;;;;;;;;5038423;28;20904;-72
2021/10/04 03:46:01;;;;;;;4.10;1.90;;;;;;;;;;5039985;28;20385;-73
2021/10/04 03:48:28;;;;;;;3.17;1.63;;;;;;;;;;5054665;28;20414;-73
2021/10/04 03:50:54;;;;;;;3.00;2.20;;;;;;;;;;5035667;28;20411;-73
2021/10/04 03:53:21;;;;;;;1.93;1.70;;;;;;;;;;5045614;28;20417;-73
2021/10/04 03:55:47;;;;;;;2.10;1.90;;;;;;;;;;5054448;28;20433;-73
2021/10/04 03:58:13;;;;;;;5.57;1.80;;;;;;;;;;5042850;28;20753;-73
2021/10/04 04:00:39;;;;;;;2.70;2.30;;;;;;;;;;5053934;28;20415;-72
2021/10/04 04:03:07;;;;;;;2.80;2.03;;;;;;;;;;5058011;28;20442;-74
2021/10/04 04:05:34;;;;;;;9.43;2.20;;;;;;;;;;5052014;28;20441;-76
2021/10/04 04:08:00;;;;;;;1.93;1.80;;;;;;;;;;5034474;28;20776;-76
2021/10/04 04:10:26;;;;;;;2.83;2.17;;;;;;;;;;5039701;28;20763;-73
2021/10/04 04:12:52;;;;;;;3.00;2.47;;;;;;;;;;5073879;28;20492;-72
2021/10/04 04:15:18;;;;;;;5.03;2.43;;;;;;;;;;5049586;28;20415;-72
2021/10/04 04:17:44;;;;;;;4.40;2.33;;;;;;;;;;5049588;28;20407;-73
2021/10/04 04:20:11;;;;;;;5.20;2.50;;;;;;;;;;5044870;28;20409;-74
2021/10/04 04:22:37;;;;;;;5.67;2.17;;;;;;;;;;5038402;28;20410;-73
2021/10/04 04:25:04;;;;;;;4.80;3.20;;;14.00;1.00;;;;;;5052642;28;20624;-73
2021/10/04 04:27:59;;;;;;;32.30;5.20;;;;;;;;;;5045600;28;20431;-77
2021/10/04 04:30:25;;;;;;;2.70;2.50;;;;;;;;;;5040218;28;21051;-79
2021/10/04 04:33:07;;;;;;;3.43;2.63;;;;;;;;;;5038433;28;20422;-78
2021/10/04 04:36:13;;;;;;;7.47;3.00;;;14.00;1.00;;;;;;5033766;28;20400;-77
2021/10/04 04:38:55;;;;;;;5.93;3.30;;;;;;;;;;5045149;28;20410;-76
2021/10/04 04:41:25;;;;;;;5.43;2.73;;;;;;;;;;5038899;28;20386;-77
2021/10/04 04:43:52;;;;;;;7.40;3.63;;;;;;;;;;5033729;28;20491;-72
2021/10/04 04:46:18;;;;;;;4.43;2.60;;;;;;;;;;5038323;28;20412;-74
2021/10/04 04:48:55;;;;;;;4.07;2.87;;;;;;;;;;5053763;28;20920;-74
2021/10/04 04:51:21;;;;;;;12.47;3.07;;;;;;;;;;5057945;28;20723;-74
2021/10/04 04:53:47;;;;;;;11.33;2.57;;;;;;;;;;5072411;28;20413;-72
2021/10/04 04:56:43;;;;;;;7.23;3.23;;;14.00;1.00;;;;;;5073497;28;20891;-79
2021/10/04 04:59:09;;;;;;;9.73;3.20;;;;;;;;;;5064011;28;20418;-73
2021/10/04 05:01:38;;;;;;;5.73;2.90;;;;;;;;;;5043287;28;20776;-75
2021/10/04 05:04:25;;;;;;;3.97;2.70;;;14.00;1.00;;;;;;5034452;28;20949;-74
2021/10/04 05:06:51;;;;;;;6.87;3.03;;;;;;;;;;5046825;28;21256;-74
2021/10/04 05:09:36;;;;;;;6.17;3.57;;;;;;;;;;5037645;28;20426;-74
2021/10/04 05:12:08;;;;;;;5.10;2.83;;;;;;;;;;5050446;28;20415;-76
2021/10/04 05:14:34;;;;;;;8.03;3.20;;;;;;;;;;5057714;28;20449;-74
2021/10/04 05:17:00;;;;;;;5.40;3.67;;;;;;;;;;5051992;28;20774;-75
2021/10/04 05:19:26;;;;;;;4.50;2.97;;;14.10;1.00;;;;;;5056018;28;20423;-75
2021/10/04 05:21:52;;;;;;;5.27;3.20;;;;;;;;;;5045532;28;20817;-74
2021/10/04 05:24:18;;;;;;;3.43;2.60;;;;;;;;;;5037476;28;20192;-75
2021/10/04 05:26:44;;;;;;;5.47;3.57;;;;;;;;;;5037408;28;20423;-73
2021/10/04 05:29:19;;;;;;;9.67;3.70;;;;;;;;;;5045451;28;20909;-75
2021/10/04 05:31:50;;;;;;;4.10;3.30;;;;;;;;;;5047559;28;20939;-75
2021/10/04 05:34:16;;;;;;;11.33;3.53;;;;;;;;;;5046965;28;20429;-73
2021/10/04 05:36:42;;;;;;;8.60;3.30;;;;;;;;;;5052640;28;20425;-73
2021/10/04 05:39:08;;;;;;;5.70;2.90;;;;;;;;;;5055526;28;20869;-73
2021/10/04 05:41:37;;;;;;;5.27;3.33;;;;;;;;;;5045833;28;20506;-73
2021/10/04 05:44:07;;;;;;;39.60;5.40;;;;;;;;;;5038980;28;20803;-73
2021/10/04 05:46:35;;;;;;;11.37;4.10;;;14.20;1.00;;;;;;5044175;28;20779;-72
2021/10/04 05:49:01;;;;;;;9.17;4.30;;;14.10;1.00;;;;;;5051936;28;20422;-72
2021/10/04 05:51:27;;;;;;;8.10;4.00;;;;;;;;;;5048402;28;20509;-72
2021/10/04 05:53:53;;;;;;;8.93;3.30;;;;;;;;;;5040444;28;21063;-73
2021/10/04 05:56:19;;;;;;;10.60;3.63;;;;;;;;;;5056321;28;20763;-72
2021/10/04 05:58:45;;;;;;;7.23;3.13;;;;;;;;;;5055282;28;20494;-78
2021/10/04 06:01:19;;;;;;;6.77;3.50;;;;;;;;;;5076561;28;20538;-77
2021/10/04 06:03:49;;;;;;;5.30;3.40;;;;;;;;;;5075251;28;20876;-77
2021/10/04 06:06:19;;;;;;;8.80;4.10;;;;;;;;;;5041920;28;20955;-77
2021/10/04 06:08:49;;;;;;;8.77;4.13;;;;;;;;;;5044675;28;20518;-78
2021/10/04 06:11:37;;;;;;;6.97;4.17;;;14.20;1.00;;;;;;5056453;28;20811;-77
2021/10/04 06:14:03;;;;;;;8.00;4.30;;;;;;;;;;5055398;28;20426;-73
2021/10/04 06:16:29;;;;;;;7.80;4.10;;;;;;;;;;5036972;28;20434;-73
2021/10/04 06:18:56;;;;;;;19.60;4.80;;;;;;;;;;5050189;28;20457;-73
2021/10/04 06:21:22;;;;;;;6.13;3.90;;;;;;;;;;5039650;28;20977;-73
2021/10/04 06:23:48;;;;;;;4.93;3.50;;;;;;;;;;5036267;28;20771;-73
2021/10/04 06:26:14;;;;;;;4.17;2.63;;;;;;;;;;5053422;28;20720;-72
2021/10/04 06:28:40;;;;;;;9.07;3.77;;;;;;;;;;5055254;28;20414;-73
2021/10/04 06:31:09;;;;;;;4.17;3.70;;;;;;;;;;5041094;28;20422;-73
2021/10/04 06:33:36;;;;;;;10.37;4.07;;;;;;;;;;5040455;28;20438;-73
2021/10/04 06:36:02;;;;;;;3.87;2.63;;;;;;;;;;5054813;28;20395;-73
2021/10/04 06:38:28;;;;;;;7.60;3.07;;;;;;;;;;5045908;28;20876;-73
2021/10/04 06:40:54;;;;;;;9.17;3.50;;;;;;;;;;5054467;28;20501;-73
2021/10/04 06:43:20;;;;;;;5.20;3.27;;;;;;;;;;5045304;28;20458;-73
2021/10/04 06:45:46;;;;;;;18.10;4.00;;;;;;;;;;5053371;28;20481;-73
2021/10/04 06:48:12;;;;;;;7.53;3.20;;;;;;;;;;5042965;28;20473;-73
2021/10/04 06:50:39;;;;;;;5.33;2.63;;;;;;;;;;5054698;28;20395;-73
2021/10/04 06:53:05;;;;;;;4.50;4.03;;;;;;;;;;5044001;28;20469;-73
2021/10/04 06:55:31;;;;;;;6.53;3.40;;;;;;;;;;5034946;28;20434;-73
2021/10/04 06:57:57;;;;;;;9.97;3.67;;;;;;;;;;5045625;28;20445;-73
2021/10/04 07:00:26;;;;;;;3.60;3.03;;;14.50;1.00;;;;;;5043184;28;20472;-77
2021/10/04 07:02:53;;;;;;;3.80;2.97;;;14.50;1.00;;;;;;5054745;28;20399;-77
2021/10/04 07:05:21;;;;;;;11.13;3.60;;;14.50;1.00;;;;;;5053103;28;20453;-77
2021/10/04 07:07:49;;;;;;;9.90;3.37;;;14.50;1.00;;;;;;5051940;28;20449;-77
2021/10/04 07:10:16;;;;;;;3.63;2.80;;;;;;;;;;5034840;28;20419;-77
2021/10/04 07:12:42;;;;;;;5.57;3.47;;;;;;;;;;5033377;28;20778;-77
2021/10/04 07:15:08;;;;;;;4.60;2.63;;;;;;;;;;5033835;28;20411;-77
2021/10/04 07:17:34;;;;;;;3.27;2.70;;;;;;;;;;5054445;28;20381;-77
2021/10/04 07:20:00;;;;;;;3.10;2.53;;;14.60;1.00;;;;;;5054221;28;20926;-77
2021/10/04 07:22:31;;;;;;;3.53;2.50;;;;;;;;;;5054337;28;20390;-77
2021/10/04 07:24:57;;;;;;;5.40;3.03;;;;;;;;;;5054343;28;20188;-77
2021/10/04 07:27:23;;;;;;;3.63;2.70;;;;;;;;;;5053816;28;20410;-77
2021/10/04 07:29:49;;;;;;;12.23;2.73;;;;;;;;;;5054011;28;20473;-72
2021/10/04 07:32:15;;;;;;;3.57;2.77;;;;;;;;;;5054078;28;20418;-73
2021/10/04 07:34:41;;;;;;;4.20;2.53;;;;;;;;;;5063003;28;20724;-73
2021/10/04 07:37:07;;;;;;;2.97;2.47;;;;;;;;;;5073763;28;20401;-73
2021/10/04 07:39:33;;;;;;;5.67;2.47;;;;;;;;;;5054377;28;20397;-73
2021/10/04 07:41:59;;;;;;;5.47;3.00;;;14.60;1.00;;;;;;5070453;28;20388;-73
2021/10/04 07:44:26;;;;;;;4.93;2.90;;;;;;;;;;5049354;28;20527;-73
2021/10/04 07:46:53;;;;;;;3.73;2.60;;;14.60;1.00;;;;;;5040955;28;20434;-73
2021/10/04 07:49:19;;;;;;;30.63;4.73;;;;;;;;;;5051754;28;20425;-73
2021/10/04 07:51:45;;;;;;;5.97;3.07;;;;;;;;;;5053118;28;20394;-72
2021/10/04 07:54:11;;;;;;;2.83;2.40;;;;;;;;;;5033661;28;20423;-73
2021/10/04 07:56:39;;;;;;;3.97;2.80;;;;;;;;;;5033624;28;20481;-73
2021/10/04 07:59:06;;;;;;;3.20;2.03;;;14.80;1.00;;;;;;5033953;28;20427;-77
2021/10/04 08:01:33;;;;;;;5.77;2.50;;;14.80;1.00;;;;;;5034233;28;20875;-77
2021/10/04 08:03:59;;;;;;;2.90;2.03;;;;;;;;;;5053318;28;20812;-77
2021/10/04 08:06:26;;;;;;;2.63;2.33;;;;;;;;;;5053417;28;20401;-77
2021/10/04 08:08:54;;;;;;;9.70;2.43;;;14.90;1.00;;;;;;5044292;28;20769;-73
2021/10/04 08:11:20;;;;;;;4.60;2.60;;;;;;;;;;5039161;28;20444;-72
2021/10/04 08:13:46;;;;;;;3.17;2.57;;;;;;;;;;5053286;28;20425;-73
2021/10/04 08:16:12;;;;;;;7.60;3.90;;;15.00;1.00;;;;;;5053389;28;20419;-73
2021/10/04 08:18:39;;;;;;;3.47;2.70;;;;;;;;;;5052859;28;20468;-73
2021/10/04 08:21:05;;;;;;;3.83;3.23;;;;;;;;;;5052936;28;20426;-72
2021/10/04 08:23:31;;;;;;;2.97;2.70;;;;;;;;;;5052930;28;20928;-73
2021/10/04 08:25:57;;;;;;;7.63;2.80;;;;;;;;;;5052900;28;20500;-73
2021/10/04 08:28:23;;;;;;;3.97;2.90;;;;;;;;;;5052895;28;20483;-73
2021/10/04 08:30:50;;;;;;;4.23;2.93;;;;;;;;;;5053258;28;20829;-73
2021/10/04 08:33:16;;;;;;;3.97;2.90;;;;;;;;;;5052949;28;20928;-73
2021/10/04 08:35:42;;;;;;;3.97;2.90;;;;;;;;;;5052643;28;20365;-73
2021/10/04 08:38:08;;;;;;;7.67;3.90;;;;;;;;;;5052689;28;20411;-73
2021/10/04 08:40:34;;;;;;;4.30;3.17;;;;;;;;;;5072541;28;20808;-73
2021/10/04 08:43:00;;;;;;;13.37;4.20;;;;;;;;;;5070535;28;20376;-73
2021/10/04 08:45:27;;;;;;;6.80;3.47;;;16.00;1.00;;;;;;5044288;28;20451;-72
2021/10/04 08:47:58;;;;;;;4.33;3.00;;;16.00;1.00;;;;;;5047705;28;20437;-73
2021/10/04 08:50:28;;;;;;;29.87;5.43;;;16.00;1.00;;;;;;5048476;28;20857;-77
2021/10/04 08:52:54;;;;;;;3.20;2.80;;;;;;;;;;5051111;28;20422;-73
2021/10/04 08:55:21;;;;;;;3.50;3.10;;;;;;;;;;5047208;28;20541;-73
2021/10/04 08:57:47;;;;;;;7.43;3.20;;;;;;;;;;5032885;28;20433;-73
2021/10/04 09:00:14;;;;;;;3.60;3.10;;;;;;;;;;5043636;28;20408;-73
2021/10/04 09:02:40;;;;;;;3.90;3.50;;;;;;;;;;5052564;28;20398;-73
2021/10/04 09:05:09;;;;;;;5.10;3.57;;;16.20;1.00;;;;;;5052610;28;20447;-73
2021/10/04 09:07:49;;;;;;;5.30;3.33;;;16.20;1.00;;;;;;5051640;28;20381;-73
2021/10/04 09:10:20;;;;;;;3.30;2.97;;;16.30;1.00;;;;;;5033016;28;20399;-73
2021/10/04 09:12:52;;;;;;;3.77;3.33;;;16.20;1.00;;;;;;5046207;28;20412;-72
2021/10/04 09:15:37;;;;;;;4.53;2.80;;;16.20;1.00;;;;;;5071416;28;20419;-77
2021/10/04 09:18:14;;;;;;;8.43;3.60;;;16.20;1.00;;;;;;5058690;28;20503;-77
2021/10/04 09:20:52;;;;;;;4.20;3.80;;;16.20;1.00;;;;;;5066969;28;20464;-77
2021/10/04 09:23:27;;;;;;;3.73;3.30;;;16.20;1.00;;;;;;5041137;28;20958;-77
2021/10/04 09:25:53;;;;;;;3.50;3.20;;;;;;;;;;5031338;28;20508;-77
2021/10/04 09:28:37;;;;;;;6.00;3.23;;;16.10;1.00;;;;;;5032661;28;20391;-78
2021/10/04 09:31:21;;;;;;;3.30;3.00;;;16.20;1.00;;;;;;5032898;28;20408;-77
2021/10/04 09:34:15;;;;;;;4.57;3.00;;;16.20;1.00;;;;;;5032598;28;20477;-77
2021/10/04 09:36:46;;;;;;;4.27;3.40;;;16.20;1.00;;;;;;4990650;28;20425;-77
2021/10/04 09:39:11;;;;;;;3.10;2.67;;;;;;;;;;4990935;28;20410;-77
2021/10/04 09:41:37;;;;;;;3.37;2.80;;;;;;;;;;4990612;28;20389;-78
2021/10/04 09:44:04;;;;;;;3.67;3.07;;;;;;;;;;4990725;28;20445;-76
2021/10/04 09:46:31;;;;;;;6.07;2.87;;;;;;;;;;4996632;28;20424;-76
2021/10/04 09:49:01;;;;;;;6.90;3.10;;;16.30;1.00;;;;;;5010503;28;20369;-76
2021/10/04 09:51:27;;;;;;;4.77;2.90;;;;;;;;;;5011465;28;20494;-77
2021/10/04 09:54:09;;;;;;;4.23;3.20;;;16.30;1.00;;;;;;4991528;28;20587;-76
2021/10/04 09:56:36;;;;;;;6.17;3.27;;;;;;;;;;4994494;28;20404;-77
2021/10/04 09:59:02;;;;;;;4.77;3.20;;;;;;;;;;4994395;28;20421;-76
2021/10/04 10:01:28;;;;;;;5.83;3.93;;;;;;;;;;5010854;28;20407;-76
2021/10/04 10:03:55;;;;;;;4.37;3.30;;;16.30;1.00;;;;;;5002766;28;20416;-77
2021/10/04 10:06:21;;;;;;;7.30;4.00;;;;;;;;;;5013935;28;20484;-76
2021/10/04 10:08:47;;;;;;;5.60;3.80;;;;;;;;;;5013593;28;20988;-77
2021/10/04 10:11:17;;;;;;;8.93;3.43;;;;;;;;;;4997184;28;20433;-77
2021/10/04 10:13:43;;;;;;;3.67;3.07;;;;;;;;;;5027204;28;20884;-76
2021/10/04 10:16:11;;;;;;;5.37;3.50;;;16.60;1.00;;;;;;5035970;28;20741;-77
2021/10/04 10:18:47;;;;;;;5.00;3.73;;;16.70;1.00;;;;;;5035584;28;20410;-76
2021/10/04 10:21:23;;;;;;;5.57;3.87;;;;;;;;;;5050895;28;20450;-76
2021/10/04 10:23:55;;;;;;;4.70;3.30;;;16.80;1.00;;;;;;5054256;28;20399;-76
2021/10/04 10:26:39;;;;;;;4.80;3.27;;;16.90;1.00;;;;;;5055447;28;20381;-76
2021/10/04 10:29:17;;;;;;;4.50;3.03;;;16.90;1.00;;;;;;5055386;28;20378;-76
2021/10/04 10:31:57;;;;;;;3.57;2.90;;;16.90;1.00;;;;;;5055685;28;20923;-76
2021/10/04 10:34:29;;;;;;;5.97;3.43;;;16.90;1.00;;;;;;5053970;28;20394;-76
2021/10/04 10:37:27;;;;;;;7.30;3.60;;;16.90;1.00;;;;;;5054903;28;20410;-76
2021/10/04 10:40:14;;;;;;;5.77;3.60;;;17.00;1.00;;;;;;5055259;28;20415;-76
2021/10/04 10:42:57;;;;;;;6.30;4.30;;;17.00;1.00;;;;;;5042731;28;20809;-76
2021/10/04 10:45:23;;;;;;;4.90;4.03;;;;;;;;;;5035297;28;20516;-73
2021/10/04 10:47:49;;;;;;;5.40;3.90;;;17.10;1.00;;;;;;5044161;28;20489;-73
2021/10/04 10:50:46;;;;;;;6.47;3.87;;;17.20;1.00;;;;;;5054997;28;20399;-73
2021/10/04 10:53:13;;;;;;;4.10;3.27;;;;;;;;;;5031036;28;20437;-72
2021/10/04 10:55:46;;;;;;;6.77;4.23;;;17.30;1.00;;;;;;5031251;28;20453;-73
2021/10/04 10:58:14;;;;;;;4.93;3.67;;;;;;;;;;5032642;28;20436;-73
2021/10/04 11:00:50;;;;;;;5.30;3.70;;;17.50;1.00;;;;;;5032992;28;20385;-73
2021/10/04 11:03:18;;;;;;;4.20;3.20;;;;;;;;;;5029817;28;20454;-73
2021/10/04 11:05:44;;;;;;;3.40;3.00;;;;;;;;;;5028827;28;20910;-73
2021/10/04 11:08:10;;;;;;;5.07;3.43;;;;;;;;;;5017742;28;20434;-72
2021/10/04 11:10:56;;;;;;;14.63;4.20;;;17.70;1.00;;;;;;5030780;28;20415;-73
2021/10/04 11:13:30;;;;;;;4.27;3.50;;;17.70;1.00;;;;;;5032200;28;20536;-73
2021/10/04 11:15:58;;;;;;;4.73;3.53;;;;;;;;;;5032499;28;20392;-73
2021/10/04 11:18:34;;;;;;;8.53;3.20;;;17.60;1.00;;;;;;5030756;28;20806;-73
2021/10/04 11:21:04;;;;;;;3.40;2.93;;;;;;;;;;5032229;28;20451;-73
2021/10/04 11:23:30;;;;;;;4.00;2.93;;;;;;;;;;5030113;28;20394;-73
2021/10/04 11:25:56;;;;;;;4.77;3.20;;;17.80;1.00;;;;;;5031977;28;20461;-73
2021/10/04 11:28:31;;;;;;;3.30;3.00;;;;;;;;;;5012598;28;20865;-73
2021/10/04 11:30:59;;;;;;;4.50;3.10;;;18.10;1.00;;;;;;5041866;28;20375;-76
2021/10/04 11:33:26;;;;;;;7.27;2.83;;;18.10;1.00;;;;;;5054394;28;20754;-76
2021/10/04 11:35:59;;;;;;;4.03;3.00;;;;;;;;;;5053853;28;20466;-76
2021/10/04 11:38:27;;;;;;;6.70;3.77;;;18.20;1.00;;;;;;5054194;28;20431;-76
2021/10/04 11:40:53;;;;;;;6.37;3.80;;;;;;;;;;5053775;28;20380;-76
2021/10/04 11:43:20;;;;;;;4.50;3.00;;;;;;;;;;5044881;28;20490;-76
2021/10/04 11:45:49;;;;;;;4.30;3.00;;;18.50;1.00;;;;;;5034094;28;20519;-75
2021/10/04 11:48:31;;;;;;;4.50;2.97;;;;;;;;;;5034229;28;20401;-76
2021/10/04 11:50:58;;;;;;;4.60;3.00;;;;;;;;;;5034056;28;20369;-76
2021/10/04 11:53:26;;;;;;;4.17;2.60;;;18.20;1.00;;;;;;5033923;28;20397;-76
2021/10/04 11:56:04;;;;;;;10.60;2.50;;;18.40;1.00;;;;;;5033754;28;20407;-76
2021/10/04 11:58:30;;;;;;;5.03;2.37;;;;;;;;;;5033882;28;20457;-77
2021/10/04 12:01:01;;;;;;;14.43;3.03;;;;;;;;;;5035596;28;20434;-72
2021/10/04 12:03:31;;;;;;;176.63;14.70;;;;;;;;;;5050049;28;20857;-77
2021/10/04 12:05:59;;;;;;;7.50;2.17;;;18.60;1.00;;;;;;5036332;28;21022;-76
2021/10/04 12:08:35;;;;;;;5.43;1.90;;;18.60;1.00;;;;;;5048688;28;20455;-76
2021/10/04 12:11:04;;;;;;;2.20;1.67;;;;;;;;;;5047451;28;20415;-76
2021/10/04 12:13:39;;;;;;;2.63;1.47;;;18.60;1.00;;;;;;5037540;28;20436;-77
2021/10/04 12:16:06;;;;;;;2.97;1.70;;;18.60;1.00;;;;;;5059171;28;20394;-72
2021/10/04 12:18:39;;;;;;;2.77;1.57;;;18.80;1.00;;;;;;5074067;28;20380;-72
2021/10/04 12:21:44;;;;;;;2.57;1.80;;;18.90;1.00;;;;;;5068200;28;20426;-75
2021/10/04 12:24:26;;;;;;;2.00;1.70;;;19.10;1.00;;;;;;5066406;28;20506;-72
2021/10/04 12:26:54;;;;;;;4.80;1.60;;;19.20;1.00;;;;;;5068844;28;20424;-73
2021/10/04 12:29:41;;;;;;;5.23;1.70;;;19.00;1.00;;;;;;5034011;28;20373;-72
2021/10/04 12:32:23;;;;;;;5.77;2.00;;;18.80;1.00;;;;;;5035654;28;20405;-76
2021/10/04 12:35:17;;;;;;;4.10;1.47;;;18.70;1.00;;;;;;5034288;28;20420;-76
2021/10/04 12:37:44;;;;;;;5.50;1.77;;;;;;;;;;5027939;28;20434;-77
2021/10/04 12:40:24;;;;;;;2.70;1.87;;;18.70;1.00;;;;;;5008205;28;20517;-76
2021/10/04 12:42:52;;;;;;;2.47;1.50;;;;;;;;;;5028980;28;20417;-76
2021/10/04 12:45:18;;;;;;;8.17;2.13;;;;;;;;;;5018877;28;20444;-73
2021/10/04 12:48:14;;;;;;;5.67;2.10;;;;;;;;;;5012856;28;20760;-76
2021/10/04 12:50:41;;;;;;;2.50;1.80;;;18.50;1.00;;;;;;4926068;29;20442;-77
2021/10/04 12:53:12;;;;;;;4.43;2.00;;;;;;;;;;4949878;29;20400;-76
2021/10/04 12:55:47;;;;;;;4.93;2.13;;;;;;;;;;4932547;29;20428;-76
2021/10/04 12:58:13;;;;;;;6.20;2.70;;;;;;;;;;4932671;29;20396;-72
2021/10/04 13:00:39;;;;;;;5.53;1.90;;;;;;;;;;4948377;29;20420;-72
2021/10/04 13:03:05;;;;;;;4.43;1.80;;;;;;;;;;4953332;29;20439;-72
2021/10/04 13:05:33;;;;;;;2.30;1.67;;;;;;;;;;4925795;29;20882;-72
2021/10/04 13:07:59;;;;;;;11.47;2.60;;;;;;;;;;4910718;29;20422;-72
2021/10/04 13:10:25;;;;;;;4.63;2.20;;;;;;;;;;4933197;29;20549;-72
2021/10/04 13:12:57;;;;;;;1.60;1.37;;;;;;;;;;4933660;29;20403;-72
2021/10/04 13:15:33;;;;;;;5.97;1.83;;;18.90;1.00;;;;;;4956316;28;20472;-76
2021/10/04 13:18:02;;;;;;;4.33;1.87;;;;;;;;;;4968935;28;20448;-75
2021/10/04 13:20:38;;;;;;;5.60;2.07;;;;;;;;;;4954978;28;20859;-75
2021/10/04 13:23:15;;;;;;;1.57;1.40;;;;;;;;;;4961275;28;20447;-76
2021/10/04 13:25:50;;;;;;;1.40;1.30;;;;;;;;;;4953308;28;20443;-76
2021/10/04 13:28:26;;;;;;;1.33;1.23;;;18.90;1.00;;;;;;5038267;28;20417;-77
2021/10/04 13:31:11;;;;;;;1.97;1.30;;;18.80;1.00;;;;;;5037219;28;20392;-76
2021/10/04 13:33:37;;;;;;;3.50;1.40;;;;;;;;;;5039664;28;20442;-74
2021/10/04 13:36:04;;;;;;;3.30;1.57;;;;;;;;;;5036956;28;20408;-74
2021/10/04 13:38:30;;;;;;;2.27;1.20;;;;;;;;;;5037000;28;20757;-74
2021/10/04 13:40:59;;;;;;;5.77;1.50;;;;;;;;;;5037028;28;20377;-74
2021/10/04 13:43:26;;;;;;;4.00;1.43;;;19.00;1.00;;;;;;5039429;28;20821;-73
2021/10/04 13:45:53;;;;;;;2.77;1.30;;;;;;;;;;5056825;28;20461;-74
2021/10/04 13:48:20;;;;;;;1.47;1.20;;;;;;;;;;5041178;28;20418;-74
2021/10/04 13:50:47;;;;;;;1.57;1.20;;;19.00;1.00;;;;;;5046739;28;20482;-73
2021/10/04 13:53:13;;;;;;;1.60;0.90;;;;;;;;;;5056663;28;20376;-74
2021/10/04 13:55:44;;;;;;;1.10;1.00;;;;;;;;;;5046358;28;20404;-77
2021/10/04 13:58:14;;;;;;;1.20;1.10;;;;;;;;;;5040595;28;20807;-74
2021/10/04 14:00:40;;;;;;;42.50;3.97;;;;;;;;;;5038045;28;21086;-72
2021/10/04 14:03:06;;;;;;;3.10;1.17;;;;;;;;;;5053299;28;20441;-73
2021/10/04 14:05:32;;;;;;;1.07;0.90;;;;;;;;;;5042755;28;20775;-72
2021/10/04 14:07:59;;;;;;;4.40;1.50;;;;;;;;;;5038448;28;21221;-72
2021/10/04 14:10:26;;;;;;;4.43;1.40;;;;;;;;;;5042801;28;20445;-72
2021/10/04 14:12:52;;;;;;;1.20;1.03;;;;;;;;;;5041556;28;20392;-72
2021/10/04 14:15:19;;;;;;;0.97;0.80;;;;;;;;;;5045394;28;20485;-72
2021/10/04 14:17:49;;;;;;;1.77;1.10;;;;;;;;;;5055977;28;20409;-72
2021/10/04 14:20:16;;;;;;;4.63;1.00;;;;;;;;;;5052494;28;20419;-72
2021/10/04 14:22:46;;;;;;;5.83;1.50;;;18.50;1.00;;;;;;5055981;28;20413;-72
2021/10/04 14:25:15;;;;;;;1.13;0.90;;;18.40;1.00;;;;;;5051476;28;20438;-72
2021/10/04 14:27:42;;;;;;;1.70;1.07;;;;;;;;;;5056196;28;21017;-72
2021/10/04 14:30:10;;;;;;;4.77;1.03;;;18.30;1.00;;;;;;5050115;28;20440;-72